Aeroporto :
LOGIN :

Iscrizione | Disclaimer

   EN    FR    IT 

 










Sommario :    VFR   VFR Marginale   IFR   IFR Intensivo   IFR Molto Intensivo
Visibilità : 
Base nubi : 
>= 8 km
>= 3000ft
5 / 8 km
1000 / 3000 ft
1500m / 5 km
500 / 1000 ft
800 / 1500m
200 / 500 ft
< 800m
< 200 ft
Simboli :   Temporali  Nebbia  Neve Forte  Precipitazioni Forti  Vento > 20 kt
SIGMETs :   Varie  Temporali  Ghiacco  Turbolenza  Onda orograficha  Ceneri Vulcaniche






- Altitudine del aeroporto : 699 ft
- Codice IATA : PAD


EDLP - Paderborn Lippstadt

ULTIMO METAR :
  • 171820Z 21010KT 9999 -RA SCT018 BKN021 OVC027 08/06 Q1015

METARs OBSOLETI :
  • 171750Z 21010KT 9999 -RA BKN021 BKN030 OVC048 08/06 Q1015
  • 171720Z 21009KT 9999 -RA BKN024 BKN038 OVC045 08/06 Q1015
  • 171650Z 21011KT 9999 -RA BKN029 OVC036 08/05 Q1015
  • 171620Z 21011KT 9999 OVC031 09/05 Q1014
  • 171550Z 21013KT 9999 BKN032 BKN040 OVC048 09/05 Q1014

TAF TAF EDLP
Valido dal 17 a 18 ore il 18 a 18 ore UTC


171700Z 1718/1818 24010KT 9999 SCT040
TEMPO 1804/1809 BKN011
PROB30
TEMPO 1815/1818 26015KT SHRAGS BKN013CB



MetMap, La meteo Aeronautica in un colpo d'occhio ! - Copyright ORBIFLY Dicembre 2007 - Disclaimer

ORBIFLY MET'MAP TEAM :

Programmazione e sviluppo : Alexandra Zaïnal
Concezione : Baudouin d'Aumeries
Aiuto per la programmazione : Marc-Olivier Méhu
Supporto tecnico e logistico : Manuel Goepfert
Aiuto per la traduzione : Arnaldo La Scala

Contatto : metmap@orbifly.com




FONTI E CREDITI :

   NOAA